Shin Chun — VRFD2 — position and weather

sailwx.info

Track history (hours):
 
Tides and Currents Weather Stations Pressure Air Temp Water Temp Dewpoint Dewpoint Depression Visibility Wind Speed Wind Dir Waves Ship Positions

Shin Chun

Last reported at 2014-Dec-20 19:18 UTC. Time now 2014-Dec-20 20:08 UTC.
Position N 26°00' E 119°29'.

Length 152 m; draft 6.6 m.

Type: Cargo ship. MMSI: 477218300.

Date/timePositionNaut miles runAvg speedWind from/ knotsBaromVisibWave heightAir tempDewpointWater temp
2014-Dec-20 19:18N 26°00' E 119°29'0 0.0
2014-Dec-20 18:30N 26°00' E 119°29'0 0.0
2014-Dec-20 17:30N 26°00' E 119°29'0 0.0
2014-Dec-20 16:30N 26°00' E 119°29'0 0.0
2014-Dec-20 15:18N 26°00' E 119°29'0 0.0
2014-Dec-20 14:24N 26°00' E 119°29'0 0.0
2014-Dec-20 13:30N 26°00' E 119°29'0 0.0
2014-Dec-20 12:30N 26°00' E 119°29'0 0.0
2014-Dec-20 11:30N 26°00' E 119°29'0 0.0
2014-Dec-20 10:30N 26°00' E 119°29'0 0.0
2014-Dec-20 09:30N 26°00' E 119°29'0 0.0
2014-Dec-20 08:30N 26°00' E 119°29'0 0.0
2014-Dec-20 07:30N 26°00' E 119°29'0 0.0
2014-Dec-20 06:30N 26°00' E 119°29'0 0.0
2014-Dec-20 05:30N 26°00' E 119°29'0 0.0
2014-Dec-20 04:30N 26°00' E 119°29'0 0.0
2014-Dec-20 03:23N 26°00' E 119°29'0 0.0
2014-Dec-20 02:29N 26°00' E 119°29'6 6.8
2014-Dec-20 01:33N 26°06' E 119°32'9 8.6
2014-Dec-20 00:33N 26°06' E 119°42'8 7.6
2014-Dec-19 23:29N 26°02' E 119°50'0 0.1
2014-Dec-19 18:22N 26°02' E 119°50'1011.7
2014-Dec-19 17:32N 25°54' E 119°56'18312.7
2014-Dec-19 03:07N 22°51' E 120°01'713.2
2014-Dec-19 02:33N 22°45' E 120°06'1312.7
2014-Dec-19 01:33N 22°37' E 120°17'3 2.4
2014-Dec-19 00:28N 22°35' E 120°18'0 0.0
2014-Dec-18 23:28N 22°35' E 120°18'0 0.0
2014-Dec-18 22:28N 22°35' E 120°18'0 0.0
2014-Dec-18 21:28N 22°35' E 120°18'0 0.0
2014-Dec-18 20:28N 22°35' E 120°18'0 0.0
2014-Dec-18 19:28N 22°35' E 120°18'0 0.5
2014-Dec-18 18:33N 22°35' E 120°18'1010.0
2014-Dec-18 17:33N 22°39' E 120°08'1413.8
2014-Dec-18 16:33N 22°46' E 119°55'11312.3
2014-Dec-18 07:22N 24°05' E 118°27'1112.8
2014-Dec-18 06:31N 24°12' E 118°18'1313.6
2014-Dec-18 05:33N 24°22' E 118°08'1010.0
2014-Dec-18 04:33N 24°31' E 118°05'0 0.1
2014-Dec-18 03:33N 24°31' E 118°05'0 0.0
2014-Dec-18 02:31N 24°31' E 118°05'0 0.0
2014-Dec-18 01:28N 24°31' E 118°05'0 0.0
2014-Dec-18 00:28N 24°31' E 118°05'0 0.0
2014-Dec-17 23:07N 24°31' E 118°05'0 0.0
2014-Dec-17 22:28N 24°31' E 118°05'0 0.0
2014-Dec-17 21:28N 24°31' E 118°05'4 4.2
2014-Dec-17 20:33N 24°28' E 118°03'1211.5
2014-Dec-17 19:32N 24°19' E 118°12'1212.7
2014-Dec-17 18:33N 24°21' E 118°26'1313.0
2014-Dec-17 17:33N 24°22' E 118°40'2713.4
2014-Dec-17 15:33N 24°29' E 119°08'110 2.9
2014-Dec-16 01:09N 22°51' E 120°02'914.2
2014-Dec-16 00:32N 22°44' E 120°07'1111.6
2014-Dec-15 23:33N 22°36' E 120°17'2 2.0
2014-Dec-15 22:31N 22°35' E 120°18'0 0.0
2014-Dec-15 21:31N 22°35' E 120°18'0 0.0
2014-Dec-15 20:31N 22°35' E 120°18'0 0.0
2014-Dec-15 19:25N 22°35' E 120°18'0 0.0
2014-Dec-15 18:31N 22°35' E 120°18'0 0.3
2014-Dec-15 17:34N 22°35' E 120°18'4 3.9
2014-Dec-15 16:28N 22°37' E 120°14'0 0.0
2014-Dec-15 15:28N 22°37' E 120°14'0 0.0
2014-Dec-15 14:28N 22°37' E 120°14'0 0.0
2014-Dec-15 13:28N 22°37' E 120°14'0 0.0
2014-Dec-15 12:28N 22°37' E 120°14'0 0.0
2014-Dec-15 11:28N 22°37' E 120°14'0 0.0
2014-Dec-15 10:28N 22°37' E 120°14'0 0.0
2014-Dec-15 09:22N 22°37' E 120°14'0 0.0
2014-Dec-15 08:28N 22°37' E 120°14'0 0.1
2014-Dec-15 07:28N 22°37' E 120°14'0 0.0
2014-Dec-15 06:28N 22°37' E 120°14'0 0.0
2014-Dec-15 05:28N 22°37' E 120°14'0 0.0
2014-Dec-15 04:28N 22°37' E 120°14'0 0.1
2014-Dec-15 03:34N 22°37' E 120°14'0 0.0
2014-Dec-15 02:33N 22°37' E 120°14'0 0.0
2014-Dec-15 01:33N 22°37' E 120°14'3 3.0
2014-Dec-15 00:33N 22°38' E 120°11'1313.5
2014-Dec-14 23:33N 22°49' E 120°03'18212.7
2014-Dec-14 09:10N 25°51' E 119°57'2012.4
2014-Dec-14 07:32N 26°06' E 119°41'9 9.0
2014-Dec-14 06:33N 26°05' E 119°32'5 4.7
2014-Dec-14 05:28N 26°00' E 119°29'0 0.0
2014-Dec-14 04:28N 26°00' E 119°29'0 0.0
2014-Dec-14 03:28N 26°00' E 119°29'0 0.0
2014-Dec-14 02:28N 26°00' E 119°29'0 0.0
2014-Dec-14 01:10N 26°00' E 119°29'0 0.0
2014-Dec-14 00:28N 26°00' E 119°29'0 0.0
2014-Dec-13 23:28N 26°00' E 119°29'0 0.0
2014-Dec-13 22:28N 26°00' E 119°29'0 0.0
2014-Dec-13 21:28N 26°00' E 119°29'0 0.0
2014-Dec-13 20:22N 26°00' E 119°29'0 0.0
2014-Dec-13 19:28N 26°00' E 119°29'0 0.0
2014-Dec-13 18:22N 26°00' E 119°29'0 0.0
2014-Dec-13 17:28N 26°00' E 119°29'0 0.0
2014-Dec-13 16:28N 26°00' E 119°29'0 0.0
2014-Dec-13 15:28N 26°00' E 119°29'0 0.0
2014-Dec-13 14:34N 26°00' E 119°29'0 0.0
2014-Dec-13 13:33N 26°00' E 119°29'0 0.0
2014-Dec-13 12:33N 26°00' E 119°29'0 0.0
2014-Dec-13 11:33N 26°00' E 119°29'0 0.0
2014-Dec-13 10:27N 26°00' E 119°29'0 0.0
2014-Dec-13 09:33N 26°00' E 119°29'0 0.0
2014-Dec-13 08:33N 26°00' E 119°29'0 0.0
2014-Dec-13 07:33N 26°00' E 119°29'12 9.7
2014-Dec-13 06:21N 26°08' E 119°39'17 9.5
2014-Dec-13 04:32N 25°56' E 119°54'18310.1
2014-Dec-12 10:23N 22°53' E 119°60'1214.8
2014-Dec-12 09:33N 22°43' E 120°08'1212.3
2014-Dec-12 08:33N 22°35' E 120°18'1 0.8
2014-Dec-12 07:30N 22°35' E 120°18'0 0.0
2014-Dec-12 06:24N 22°35' E 120°18'0 0.0
2014-Dec-12 05:30N 22°35' E 120°18'0 0.0
2014-Dec-12 04:30N 22°35' E 120°18'0 0.0
2014-Dec-12 03:30N 22°35' E 120°18'0 0.0
2014-Dec-12 02:18N 22°35' E 120°18'0 0.0
2014-Dec-12 01:18N 22°35' E 120°18'2 2.2
2014-Dec-12 00:33N 22°36' E 120°17'4 3.9
2014-Dec-11 23:33N 22°37' E 120°13'0 0.1
2014-Dec-11 22:33N 22°37' E 120°13'0 0.1
2014-Dec-11 21:34N 22°37' E 120°13'0 0.1
2014-Dec-11 20:33N 22°37' E 120°13'0 0.1
2014-Dec-11 19:33N 22°37' E 120°13'0 0.0
2014-Dec-11 18:33N 22°37' E 120°13'0 0.1
2014-Dec-11 17:33N 22°37' E 120°13'0 0.0
2014-Dec-11 16:33N 22°37' E 120°13'9 8.6
2014-Dec-11 15:33N 22°42' E 120°05'1312.9
2014-Dec-11 14:33N 22°48' E 119°53'11112.3
2014-Dec-11 05:33N 24°04' E 118°26'1212.5
2014-Dec-11 04:34N 24°14' E 118°17'1312.1
2014-Dec-11 03:31N 24°23' E 118°07'9 9.1
2014-Dec-11 02:33N 24°31' E 118°05'0 0.2
2014-Dec-11 01:31N 24°31' E 118°05'0 0.0
2014-Dec-11 00:22N 24°31' E 118°05'0 0.0
2014-Dec-10 23:07N 24°31' E 118°05'0 0.0
2014-Dec-10 22:22N 24°31' E 118°05'0 0.0
2014-Dec-10 21:33N 24°31' E 118°05'0 0.0
2014-Dec-10 20:30N 24°31' E 118°05'0 0.0
2014-Dec-10 19:24N 24°31' E 118°05'  
Track history (hours):
 
Tides and Currents Weather Stations Pressure Air Temp Water Temp Dewpoint Dewpoint Depression Visibility Wind Speed Wind Dir Waves Ship Positions

Shin Chun

Last reported at 2014-Dec-20 19:18 UTC. Time now 2014-Dec-20 20:08 UTC.
Position N 26°00' E 119°29'.

Length 152 m; draft 6.6 m.

Type: Cargo ship. MMSI: 477218300.

Date/timePositionNaut miles runAvg speedWind from/ knotsBaromVisibWave heightAir tempDewpointWater temp
2014-Dec-20 19:18N 26°00' E 119°29'0 0.0
2014-Dec-20 18:30N 26°00' E 119°29'0 0.0
2014-Dec-20 17:30N 26°00' E 119°29'0 0.0
2014-Dec-20 16:30N 26°00' E 119°29'0 0.0
2014-Dec-20 15:18N 26°00' E 119°29'0 0.0
2014-Dec-20 14:24N 26°00' E 119°29'0 0.0
2014-Dec-20 13:30N 26°00' E 119°29'0 0.0
2014-Dec-20 12:30N 26°00' E 119°29'0 0.0
2014-Dec-20 11:30N 26°00' E 119°29'0 0.0
2014-Dec-20 10:30N 26°00' E 119°29'0 0.0
2014-Dec-20 09:30N 26°00' E 119°29'0 0.0
2014-Dec-20 08:30N 26°00' E 119°29'0 0.0
2014-Dec-20 07:30N 26°00' E 119°29'0 0.0
2014-Dec-20 06:30N 26°00' E 119°29'0 0.0
2014-Dec-20 05:30N 26°00' E 119°29'0 0.0
2014-Dec-20 04:30N 26°00' E 119°29'0 0.0
2014-Dec-20 03:23N 26°00' E 119°29'0 0.0
2014-Dec-20 02:29N 26°00' E 119°29'6 6.8
2014-Dec-20 01:33N 26°06' E 119°32'9 8.6
2014-Dec-20 00:33N 26°06' E 119°42'8 7.6
2014-Dec-19 23:29N 26°02' E 119°50'0 0.1
2014-Dec-19 18:22N 26°02' E 119°50'1011.7
2014-Dec-19 17:32N 25°54' E 119°56'18312.7
2014-Dec-19 03:07N 22°51' E 120°01'713.2
2014-Dec-19 02:33N 22°45' E 120°06'1312.7
2014-Dec-19 01:33N 22°37' E 120°17'3 2.4
2014-Dec-19 00:28N 22°35' E 120°18'0 0.0
2014-Dec-18 23:28N 22°35' E 120°18'0 0.0
2014-Dec-18 22:28N 22°35' E 120°18'0 0.0
2014-Dec-18 21:28N 22°35' E 120°18'0 0.0
2014-Dec-18 20:28N 22°35' E 120°18'0 0.0
2014-Dec-18 19:28N 22°35' E 120°18'0 0.5
2014-Dec-18 18:33N 22°35' E 120°18'1010.0
2014-Dec-18 17:33N 22°39' E 120°08'1413.8
2014-Dec-18 16:33N 22°46' E 119°55'11312.3
2014-Dec-18 07:22N 24°05' E 118°27'1112.8
2014-Dec-18 06:31N 24°12' E 118°18'1313.6
2014-Dec-18 05:33N 24°22' E 118°08'1010.0
2014-Dec-18 04:33N 24°31' E 118°05'0 0.1
2014-Dec-18 03:33N 24°31' E 118°05'0 0.0
2014-Dec-18 02:31N 24°31' E 118°05'0 0.0
2014-Dec-18 01:28N 24°31' E 118°05'0 0.0
2014-Dec-18 00:28N 24°31' E 118°05'0 0.0
2014-Dec-17 23:07N 24°31' E 118°05'0 0.0
2014-Dec-17 22:28N 24°31' E 118°05'0 0.0
2014-Dec-17 21:28N 24°31' E 118°05'4 4.2
2014-Dec-17 20:33N 24°28' E 118°03'1211.5
2014-Dec-17 19:32N 24°19' E 118°12'1212.7
2014-Dec-17 18:33N 24°21' E 118°26'1313.0
2014-Dec-17 17:33N 24°22' E 118°40'2713.4
2014-Dec-17 15:33N 24°29' E 119°08'110 2.9
2014-Dec-16 01:09N 22°51' E 120°02'914.2
2014-Dec-16 00:32N 22°44' E 120°07'1111.6
2014-Dec-15 23:33N 22°36' E 120°17'2 2.0
2014-Dec-15 22:31N 22°35' E 120°18'0 0.0
2014-Dec-15 21:31N 22°35' E 120°18'0 0.0
2014-Dec-15 20:31N 22°35' E 120°18'0 0.0
2014-Dec-15 19:25N 22°35' E 120°18'0 0.0
2014-Dec-15 18:31N 22°35' E 120°18'0 0.3
2014-Dec-15 17:34N 22°35' E 120°18'4 3.9
2014-Dec-15 16:28N 22°37' E 120°14'0 0.0
2014-Dec-15 15:28N 22°37' E 120°14'0 0.0
2014-Dec-15 14:28N 22°37' E 120°14'0 0.0
2014-Dec-15 13:28N 22°37' E 120°14'0 0.0
2014-Dec-15 12:28N 22°37' E 120°14'0 0.0
2014-Dec-15 11:28N 22°37' E 120°14'0 0.0
2014-Dec-15 10:28N 22°37' E 120°14'0 0.0
2014-Dec-15 09:22N 22°37' E 120°14'0 0.0
2014-Dec-15 08:28N 22°37' E 120°14'0 0.1
2014-Dec-15 07:28N 22°37' E 120°14'0 0.0
2014-Dec-15 06:28N 22°37' E 120°14'0 0.0
2014-Dec-15 05:28N 22°37' E 120°14'0 0.0
2014-Dec-15 04:28N 22°37' E 120°14'0 0.1
2014-Dec-15 03:34N 22°37' E 120°14'0 0.0
2014-Dec-15 02:33N 22°37' E 120°14'0 0.0
2014-Dec-15 01:33N 22°37' E 120°14'3 3.0
2014-Dec-15 00:33N 22°38' E 120°11'1313.5
2014-Dec-14 23:33N 22°49' E 120°03'18212.7
2014-Dec-14 09:10N 25°51' E 119°57'2012.4
2014-Dec-14 07:32N 26°06' E 119°41'9 9.0
2014-Dec-14 06:33N 26°05' E 119°32'5 4.7
2014-Dec-14 05:28N 26°00' E 119°29'0 0.0
2014-Dec-14 04:28N 26°00' E 119°29'0 0.0
2014-Dec-14 03:28N 26°00' E 119°29'0 0.0
2014-Dec-14 02:28N 26°00' E 119°29'0 0.0
2014-Dec-14 01:10N 26°00' E 119°29'0 0.0
2014-Dec-14 00:28N 26°00' E 119°29'0 0.0
2014-Dec-13 23:28N 26°00' E 119°29'0 0.0
2014-Dec-13 22:28N 26°00' E 119°29'0 0.0
2014-Dec-13 21:28N 26°00' E 119°29'0 0.0
2014-Dec-13 20:22N 26°00' E 119°29'0 0.0
2014-Dec-13 19:28N 26°00' E 119°29'0 0.0
2014-Dec-13 18:22N 26°00' E 119°29'0 0.0
2014-Dec-13 17:28N 26°00' E 119°29'0 0.0
2014-Dec-13 16:28N 26°00' E 119°29'0 0.0
2014-Dec-13 15:28N 26°00' E 119°29'0 0.0
2014-Dec-13 14:34N 26°00' E 119°29'0 0.0
2014-Dec-13 13:33N 26°00' E 119°29'0 0.0
2014-Dec-13 12:33N 26°00' E 119°29'0 0.0
2014-Dec-13 11:33N 26°00' E 119°29'0 0.0
2014-Dec-13 10:27N 26°00' E 119°29'0 0.0
2014-Dec-13 09:33N 26°00' E 119°29'0 0.0
2014-Dec-13 08:33N 26°00' E 119°29'0 0.0
2014-Dec-13 07:33N 26°00' E 119°29'12 9.7
2014-Dec-13 06:21N 26°08' E 119°39'17 9.5
2014-Dec-13 04:32N 25°56' E 119°54'18310.1
2014-Dec-12 10:23N 22°53' E 119°60'1214.8
2014-Dec-12 09:33N 22°43' E 120°08'1212.3
2014-Dec-12 08:33N 22°35' E 120°18'1 0.8
2014-Dec-12 07:30N 22°35' E 120°18'0 0.0
2014-Dec-12 06:24N 22°35' E 120°18'0 0.0
2014-Dec-12 05:30N 22°35' E 120°18'0 0.0
2014-Dec-12 04:30N 22°35' E 120°18'0 0.0
2014-Dec-12 03:30N 22°35' E 120°18'0 0.0
2014-Dec-12 02:18N 22°35' E 120°18'0 0.0
2014-Dec-12 01:18N 22°35' E 120°18'2 2.2
2014-Dec-12 00:33N 22°36' E 120°17'4 3.9
2014-Dec-11 23:33N 22°37' E 120°13'0 0.1
2014-Dec-11 22:33N 22°37' E 120°13'0 0.1
2014-Dec-11 21:34N 22°37' E 120°13'0 0.1
2014-Dec-11 20:33N 22°37' E 120°13'0 0.1
2014-Dec-11 19:33N 22°37' E 120°13'0 0.0
2014-Dec-11 18:33N 22°37' E 120°13'0 0.1
2014-Dec-11 17:33N 22°37' E 120°13'0 0.0
2014-Dec-11 16:33N 22°37' E 120°13'9 8.6
2014-Dec-11 15:33N 22°42' E 120°05'1312.9
2014-Dec-11 14:33N 22°48' E 119°53'11112.3
2014-Dec-11 05:33N 24°04' E 118°26'1212.5
2014-Dec-11 04:34N 24°14' E 118°17'1312.1
2014-Dec-11 03:31N 24°23' E 118°07'9 9.1
2014-Dec-11 02:33N 24°31' E 118°05'0 0.2
2014-Dec-11 01:31N 24°31' E 118°05'0 0.0
2014-Dec-11 00:22N 24°31' E 118°05'0 0.0
2014-Dec-10 23:07N 24°31' E 118°05'0 0.0
2014-Dec-10 22:22N 24°31' E 118°05'0 0.0
2014-Dec-10 21:33N 24°31' E 118°05'0 0.0
2014-Dec-10 20:30N 24°31' E 118°05'0 0.0
2014-Dec-10 19:24N 24°31' E 118°05'  

Dump ship's entire track history